KLGA

Laguardia Airport

New York, New York, USA
METAR KLGA 190451Z 31011KT 10SM SCT250 M02/M09 A3013 RMK AO2 SLP203 T10171094 400501017
Observed Flight Rules
Dec-19 @ 04:51 UTC (38 minutes ago) Visual Flight Rules
Wind Visibility Clouds
310° at 11 knots 10 miles
  • Scattered at 25,000' AGL
Temperatures Readings
Current -2°C / 28°F
Dewpoint -9°C / 16°F
Humidity 59%
Altimeter 30.13" Hg
Pressure 1020.3 hPa
Elevation 11
METAR KLGA 190451Z 31011KT 10SM SCT250 M02/M09 A3013 RMK AO2 SLP203 T10171094 400501017
Observed Flight Rules
Dec-19 @ 04:51 UTC
(38 minutes ago)
VFR
Wind Visibility
310° at 11 knots 10 miles
Clouds
  • Scattered at 25,000' AGL
Temperature Dewpoint
-2°C / 28°F -9°C / 16°F
Humidity Altimeter Pressure
59% 30.13" Hg 1020.3 hPa